Nancy Marian — WDJ3314 — position and weather

sailwx.info

Track history (hours):
 
Tides and Currents Weather Stations Pressure Air Temp Water Temp Dewpoint Dewpoint Depression Visibility Wind Speed Wind Dir Waves Ship Positions

Nancy Marian

Owner: Buffalo Marine Service, Inc., Houston, TX. More information available from US FCC via Universal Licensing System and Coast Guard Vessel Documentation Center.

Last reported at 2017-Oct-17 15:01 UTC. Time now 2017-Oct-17 16:42 UTC.
Position N 29°41' W 095°00'.

Length 21 m; draft 3 m.

Type: Tug. MMSI: 367766820.

Date/timePositionNaut miles runAvg speedWind from/ knotsBaromVisibWave heightAir tempDewpointWater temp
2017-Oct-17 15:01N 29°41' W 095°00'0 0.5
2017-Oct-17 15:00N 29°41' W 095°00'0 0.0
2017-Oct-17 14:28N 29°41' W 095°00'0 0.0
2017-Oct-17 12:27N 29°41' W 095°00'0 0.9
2017-Oct-17 12:01N 29°41' W 094°60'2 3.3
2017-Oct-17 11:29N 29°42' W 095°01'5 0.6
2017-Oct-17 02:08N 29°46' W 095°05'1 4.7
2017-Oct-17 01:53N 29°46' W 095°04'4 5.6
2017-Oct-17 01:15N 29°43' W 095°01'2 5.8
2017-Oct-17 00:53N 29°42' W 094°59'1 0.2
2017-Oct-16 20:14N 29°41' W 094°60'0 0.5
2017-Oct-16 19:57N 29°41' W 095°00'1 2.5
2017-Oct-16 19:29N 29°42' W 095°00'4 0.1
2017-Oct-15 10:13N 29°45' W 095°04'1 4.1
2017-Oct-15 09:57N 29°44' W 095°03'0 0.0
2017-Oct-14 23:06N 29°44' W 095°03'0 0.1
2017-Oct-14 23:00N 29°44' W 095°03'0 0.0
2017-Oct-14 16:43N 29°44' W 095°03'0 0.0
2017-Oct-14 16:30N 29°44' W 095°03'0 0.0
2017-Oct-14 15:59N 29°44' W 095°03'0 0.0
2017-Oct-14 15:30N 29°44' W 095°03'4 0.8
2017-Oct-14 10:41N 29°46' W 095°06'3 4.7
2017-Oct-14 10:09N 29°45' W 095°04'3 7.1
2017-Oct-14 09:45N 29°43' W 095°01'2 7.1
2017-Oct-14 09:29N 29°42' W 094°60'4 7.8
2017-Oct-14 09:00N 29°38' W 094°58'4 8.0
2017-Oct-14 08:30N 29°35' W 094°56'4 8.3
2017-Oct-14 07:59N 29°31' W 094°53'1 0.1
2017-Oct-13 18:42N 29°30' W 094°52'2 7.6
2017-Oct-13 18:30N 29°31' W 094°53'4 7.6
2017-Oct-13 18:00N 29°34' W 094°56'4 7.4
2017-Oct-13 17:29N 29°38' W 094°58'4 7.8
2017-Oct-13 17:00N 29°41' W 094°59'7 1.0
2017-Oct-13 10:22N 29°46' W 095°05'2 4.3
2017-Oct-13 09:59N 29°45' W 095°04'3 6.7
2017-Oct-13 09:30N 29°43' W 095°01'4 7.3
2017-Oct-13 09:00N 29°40' W 094°58'4 8.0
2017-Oct-13 08:30N 29°36' W 094°57'4 8.1
2017-Oct-13 08:00N 29°33' W 094°54'4 8.4
2017-Oct-13 07:29N 29°29' W 094°52'2 0.1
2017-Oct-12 10:40N 29°31' W 094°53'1 7.1
2017-Oct-12 10:29N 29°32' W 094°54'3 7.0
2017-Oct-12 10:00N 29°35' W 094°56'4 7.2
2017-Oct-12 09:26N 29°39' W 094°58'3 7.3
2017-Oct-12 09:00N 29°41' W 094°59'3 6.4
2017-Oct-12 08:30N 29°44' W 095°02'4 5.4
2017-Oct-12 07:46N 29°45' W 095°06'2 7.0
2017-Oct-12 07:30N 29°44' W 095°08'3 6.6
2017-Oct-12 07:00N 29°44' W 095°12'3 5.8
2017-Oct-12 06:30N 29°44' W 095°15'1 1.4
2017-Oct-12 06:00N 29°43' W 095°16'0 0.6
2017-Oct-12 05:30N 29°43' W 095°17'1 1.2
2017-Oct-12 05:00N 29°44' W 095°17'1 2.6
2017-Oct-12 04:30N 29°45' W 095°17'0 0.0
2017-Oct-12 04:00N 29°45' W 095°17'0 0.0
2017-Oct-12 03:30N 29°45' W 095°17'0 0.0
2017-Oct-12 03:00N 29°45' W 095°17'0 0.0
2017-Oct-12 02:30N 29°45' W 095°17'0 0.0
2017-Oct-12 02:00N 29°45' W 095°17'0 0.0
2017-Oct-12 01:30N 29°45' W 095°17'0 0.0
2017-Oct-12 01:00N 29°45' W 095°17'0 0.0
2017-Oct-12 00:30N 29°45' W 095°17'0 0.0
2017-Oct-12 00:00N 29°45' W 095°17'0 0.0
2017-Oct-11 23:29N 29°45' W 095°17'0 0.0
2017-Oct-11 23:00N 29°45' W 095°17'0 0.0
2017-Oct-11 22:30N 29°45' W 095°17'0 0.0
2017-Oct-11 21:56N 29°45' W 095°17'0 0.0
2017-Oct-11 21:29N 29°45' W 095°17'0 0.0
2017-Oct-11 20:58N 29°45' W 095°17'0 0.0
2017-Oct-11 20:30N 29°45' W 095°17'0 0.0
2017-Oct-11 20:00N 29°45' W 095°17'0 0.0
2017-Oct-11 19:30N 29°45' W 095°17'0 0.0
2017-Oct-11 18:51N 29°45' W 095°17'0 0.0
2017-Oct-11 18:13N 29°45' W 095°17'0 0.1
2017-Oct-11 17:55N 29°45' W 095°17'2 4.4
2017-Oct-11 17:24N 29°44' W 095°15'3 5.6
2017-Oct-11 16:48N 29°45' W 095°12'21 1.1
2017-Oct-10 22:00N 29°31' W 094°53'4 7.4
2017-Oct-10 21:30N 29°34' W 094°55'4 7.2
2017-Oct-10 21:00N 29°37' W 094°58'4 8.0
2017-Oct-10 20:30N 29°41' W 094°59'5 0.3
2017-Oct-10 03:52N 29°44' W 095°03'3 0.1
2017-Oct-09 08:46N 29°46' W 095°05'3 0.2
2017-Oct-08 18:14N 29°44' W 095°08'2 5.9
2017-Oct-08 17:52N 29°45' W 095°06'1 0.6
2017-Oct-08 15:58N 29°47' W 095°06'0 0.0
2017-Oct-08 15:31N 29°47' W 095°06'0 0.0
2017-Oct-08 15:01N 29°47' W 095°06'0 0.0
2017-Oct-08 14:29N 29°47' W 095°06'0 0.0
2017-Oct-08 13:25N 29°47' W 095°06'0 0.0
2017-Oct-08 11:45N 29°47' W 095°06'0 0.5
2017-Oct-08 11:30N 29°46' W 095°06'0 0.0
2017-Oct-08 08:38N 29°47' W 095°06'0 0.0
2017-Oct-08 08:10N 29°47' W 095°06'0 0.0
2017-Oct-08 07:59N 29°47' W 095°06'0 0.1
2017-Oct-08 05:40N 29°46' W 095°06'0 0.6
2017-Oct-08 05:27N 29°47' W 095°06'0 0.0
2017-Oct-08 05:00N 29°47' W 095°06'0 0.0
2017-Oct-08 03:36N 29°47' W 095°06'0 0.8
2017-Oct-08 03:09N 29°46' W 095°06'1 2.2
2017-Oct-08 02:54N 29°46' W 095°05'2 4.7
2017-Oct-08 02:28N 29°44' W 095°07'3 5.7
2017-Oct-08 02:00N 29°45' W 095°10'1 0.8
2017-Oct-08 00:53N 29°45' W 095°11'0 0.0
2017-Oct-07 15:47N 29°45' W 095°11'1 4.1
2017-Oct-07 15:31N 29°45' W 095°10'  
Track history (hours):
 
Tides and Currents Weather Stations Pressure Air Temp Water Temp Dewpoint Dewpoint Depression Visibility Wind Speed Wind Dir Waves Ship Positions

Nancy Marian

Owner: Buffalo Marine Service, Inc., Houston, TX. More information available from US FCC via Universal Licensing System and Coast Guard Vessel Documentation Center.

Last reported at 2017-Oct-17 15:01 UTC. Time now 2017-Oct-17 16:42 UTC.
Position N 29°41' W 095°00'.

Length 21 m; draft 3 m.

Type: Tug. MMSI: 367766820.

Date/timePositionNaut miles runAvg speedWind from/ knotsBaromVisibWave heightAir tempDewpointWater temp
2017-Oct-17 15:01N 29°41' W 095°00'0 0.5
2017-Oct-17 15:00N 29°41' W 095°00'0 0.0
2017-Oct-17 14:28N 29°41' W 095°00'0 0.0
2017-Oct-17 12:27N 29°41' W 095°00'0 0.9
2017-Oct-17 12:01N 29°41' W 094°60'2 3.3
2017-Oct-17 11:29N 29°42' W 095°01'5 0.6
2017-Oct-17 02:08N 29°46' W 095°05'1 4.7
2017-Oct-17 01:53N 29°46' W 095°04'4 5.6
2017-Oct-17 01:15N 29°43' W 095°01'2 5.8
2017-Oct-17 00:53N 29°42' W 094°59'1 0.2
2017-Oct-16 20:14N 29°41' W 094°60'0 0.5
2017-Oct-16 19:57N 29°41' W 095°00'1 2.5
2017-Oct-16 19:29N 29°42' W 095°00'4 0.1
2017-Oct-15 10:13N 29°45' W 095°04'1 4.1
2017-Oct-15 09:57N 29°44' W 095°03'0 0.0
2017-Oct-14 23:06N 29°44' W 095°03'0 0.1
2017-Oct-14 23:00N 29°44' W 095°03'0 0.0
2017-Oct-14 16:43N 29°44' W 095°03'0 0.0
2017-Oct-14 16:30N 29°44' W 095°03'0 0.0
2017-Oct-14 15:59N 29°44' W 095°03'0 0.0
2017-Oct-14 15:30N 29°44' W 095°03'4 0.8
2017-Oct-14 10:41N 29°46' W 095°06'3 4.7
2017-Oct-14 10:09N 29°45' W 095°04'3 7.1
2017-Oct-14 09:45N 29°43' W 095°01'2 7.1
2017-Oct-14 09:29N 29°42' W 094°60'4 7.8
2017-Oct-14 09:00N 29°38' W 094°58'4 8.0
2017-Oct-14 08:30N 29°35' W 094°56'4 8.3
2017-Oct-14 07:59N 29°31' W 094°53'1 0.1
2017-Oct-13 18:42N 29°30' W 094°52'2 7.6
2017-Oct-13 18:30N 29°31' W 094°53'4 7.6
2017-Oct-13 18:00N 29°34' W 094°56'4 7.4
2017-Oct-13 17:29N 29°38' W 094°58'4 7.8
2017-Oct-13 17:00N 29°41' W 094°59'7 1.0
2017-Oct-13 10:22N 29°46' W 095°05'2 4.3
2017-Oct-13 09:59N 29°45' W 095°04'3 6.7
2017-Oct-13 09:30N 29°43' W 095°01'4 7.3
2017-Oct-13 09:00N 29°40' W 094°58'4 8.0
2017-Oct-13 08:30N 29°36' W 094°57'4 8.1
2017-Oct-13 08:00N 29°33' W 094°54'4 8.4
2017-Oct-13 07:29N 29°29' W 094°52'2 0.1
2017-Oct-12 10:40N 29°31' W 094°53'1 7.1
2017-Oct-12 10:29N 29°32' W 094°54'3 7.0
2017-Oct-12 10:00N 29°35' W 094°56'4 7.2
2017-Oct-12 09:26N 29°39' W 094°58'3 7.3
2017-Oct-12 09:00N 29°41' W 094°59'3 6.4
2017-Oct-12 08:30N 29°44' W 095°02'4 5.4
2017-Oct-12 07:46N 29°45' W 095°06'2 7.0
2017-Oct-12 07:30N 29°44' W 095°08'3 6.6
2017-Oct-12 07:00N 29°44' W 095°12'3 5.8
2017-Oct-12 06:30N 29°44' W 095°15'1 1.4
2017-Oct-12 06:00N 29°43' W 095°16'0 0.6
2017-Oct-12 05:30N 29°43' W 095°17'1 1.2
2017-Oct-12 05:00N 29°44' W 095°17'1 2.6
2017-Oct-12 04:30N 29°45' W 095°17'0 0.0
2017-Oct-12 04:00N 29°45' W 095°17'0 0.0
2017-Oct-12 03:30N 29°45' W 095°17'0 0.0
2017-Oct-12 03:00N 29°45' W 095°17'0 0.0
2017-Oct-12 02:30N 29°45' W 095°17'0 0.0
2017-Oct-12 02:00N 29°45' W 095°17'0 0.0
2017-Oct-12 01:30N 29°45' W 095°17'0 0.0
2017-Oct-12 01:00N 29°45' W 095°17'0 0.0
2017-Oct-12 00:30N 29°45' W 095°17'0 0.0
2017-Oct-12 00:00N 29°45' W 095°17'0 0.0
2017-Oct-11 23:29N 29°45' W 095°17'0 0.0
2017-Oct-11 23:00N 29°45' W 095°17'0 0.0
2017-Oct-11 22:30N 29°45' W 095°17'0 0.0
2017-Oct-11 21:56N 29°45' W 095°17'0 0.0
2017-Oct-11 21:29N 29°45' W 095°17'0 0.0
2017-Oct-11 20:58N 29°45' W 095°17'0 0.0
2017-Oct-11 20:30N 29°45' W 095°17'0 0.0
2017-Oct-11 20:00N 29°45' W 095°17'0 0.0
2017-Oct-11 19:30N 29°45' W 095°17'0 0.0
2017-Oct-11 18:51N 29°45' W 095°17'0 0.0
2017-Oct-11 18:13N 29°45' W 095°17'0 0.1
2017-Oct-11 17:55N 29°45' W 095°17'2 4.4
2017-Oct-11 17:24N 29°44' W 095°15'3 5.6
2017-Oct-11 16:48N 29°45' W 095°12'21 1.1
2017-Oct-10 22:00N 29°31' W 094°53'4 7.4
2017-Oct-10 21:30N 29°34' W 094°55'4 7.2
2017-Oct-10 21:00N 29°37' W 094°58'4 8.0
2017-Oct-10 20:30N 29°41' W 094°59'5 0.3
2017-Oct-10 03:52N 29°44' W 095°03'3 0.1
2017-Oct-09 08:46N 29°46' W 095°05'3 0.2
2017-Oct-08 18:14N 29°44' W 095°08'2 5.9
2017-Oct-08 17:52N 29°45' W 095°06'1 0.6
2017-Oct-08 15:58N 29°47' W 095°06'0 0.0
2017-Oct-08 15:31N 29°47' W 095°06'0 0.0
2017-Oct-08 15:01N 29°47' W 095°06'0 0.0
2017-Oct-08 14:29N 29°47' W 095°06'0 0.0
2017-Oct-08 13:25N 29°47' W 095°06'0 0.0
2017-Oct-08 11:45N 29°47' W 095°06'0 0.5
2017-Oct-08 11:30N 29°46' W 095°06'0 0.0
2017-Oct-08 08:38N 29°47' W 095°06'0 0.0
2017-Oct-08 08:10N 29°47' W 095°06'0 0.0
2017-Oct-08 07:59N 29°47' W 095°06'0 0.1
2017-Oct-08 05:40N 29°46' W 095°06'0 0.6
2017-Oct-08 05:27N 29°47' W 095°06'0 0.0
2017-Oct-08 05:00N 29°47' W 095°06'0 0.0
2017-Oct-08 03:36N 29°47' W 095°06'0 0.8
2017-Oct-08 03:09N 29°46' W 095°06'1 2.2
2017-Oct-08 02:54N 29°46' W 095°05'2 4.7
2017-Oct-08 02:28N 29°44' W 095°07'3 5.7
2017-Oct-08 02:00N 29°45' W 095°10'1 0.8
2017-Oct-08 00:53N 29°45' W 095°11'0 0.0
2017-Oct-07 15:47N 29°45' W 095°11'1 4.1
2017-Oct-07 15:31N 29°45' W 095°10'  

Dump ship's entire track history